createdAt,value
2024-03-05T07:15:15.018Z,42.50
2024-03-05T07:17:43.042Z,43.93
2024-03-05T07:20:13.573Z,41.90
2024-03-05T07:22:40.926Z,44.80
2024-03-05T07:25:08.500Z,42.83
2024-03-05T07:27:35.801Z,42.87
2024-03-05T07:30:03.258Z,44.23
2024-03-05T07:32:30.683Z,43.30
2024-03-05T07:34:58.009Z,43.07
2024-03-05T07:37:25.376Z,43.47
2024-03-05T07:39:52.688Z,42.03
2024-03-05T07:42:19.922Z,42.60
2024-03-05T07:44:47.159Z,42.60
2024-03-05T07:47:14.407Z,42.67
2024-03-05T07:49:41.672Z,42.33
2024-03-05T07:52:09.037Z,43.60
2024-03-05T07:54:36.244Z,44.07
2024-03-05T07:57:03.672Z,43.10
2024-03-05T07:59:30.893Z,44.27
2024-03-05T08:01:58.265Z,43.07
2024-03-05T08:04:25.523Z,43.30
2024-03-05T08:06:55.682Z,43.77
2024-03-05T08:09:23.881Z,42.67
2024-03-05T08:11:51.173Z,42.80
2024-03-05T08:14:18.505Z,42.47
2024-03-05T08:16:45.799Z,43.83
2024-03-05T08:19:13.159Z,43.50
2024-03-05T08:21:40.443Z,44.57
2024-03-05T08:24:07.988Z,44.17
2024-03-05T08:26:35.283Z,41.87
2024-03-05T08:29:02.957Z,41.47
2024-03-05T08:31:30.401Z,43.90
2024-03-05T08:33:57.754Z,43.27
2024-03-05T08:36:24.986Z,41.27
2024-03-05T08:38:52.514Z,40.77
2024-03-05T08:41:19.788Z,41.10
2024-03-05T08:43:47.209Z,41.73
2024-03-05T08:46:14.446Z,42.17
2024-03-05T08:48:41.720Z,41.57
2024-03-05T08:51:08.927Z,42.53
2024-03-05T08:53:36.309Z,39.70
2024-03-05T08:56:03.834Z,40.57
2024-03-05T08:58:31.352Z,41.87
2024-03-05T09:00:58.663Z,40.60
2024-03-05T09:03:25.946Z,40.63
2024-03-05T09:05:53.231Z,42.43
2024-03-05T09:08:20.589Z,42.47
2024-03-05T09:10:48.055Z,43.00
2024-03-05T09:13:15.469Z,40.47
2024-03-05T09:15:44.062Z,40.13
2024-03-05T09:18:11.985Z,42.50
2024-03-05T09:20:39.292Z,41.90
2024-03-05T09:23:06.798Z,40.63
2024-03-05T09:25:34.169Z,40.63
2024-03-05T09:28:01.677Z,41.80
2024-03-05T09:30:28.944Z,41.20
2024-03-05T09:32:56.315Z,40.73
2024-03-05T09:35:23.630Z,44.20
2024-03-05T09:37:51.012Z,41.50
2024-03-05T09:40:19.569Z,40.83
2024-03-05T09:42:47.964Z,41.60
2024-03-05T09:45:18.342Z,41.40
2024-03-05T09:47:48.135Z,41.50
2024-03-05T09:50:17.802Z,43.53
2024-03-05T09:52:46.706Z,42.10
2024-03-05T09:55:14.213Z,42.60
2024-03-05T09:57:41.920Z,42.10
2024-03-05T10:00:13.955Z,42.13
2024-03-05T10:02:41.383Z,40.03
2024-03-05T10:05:11.303Z,40.30
2024-03-05T10:07:38.801Z,40.20
2024-03-05T10:10:07.473Z,42.73
2024-03-05T10:12:35.191Z,41.63
2024-03-05T10:15:27.787Z,40.90
2024-03-05T10:17:56.625Z,41.83
2024-03-05T10:20:30.187Z,41.60
2024-03-05T10:23:02.234Z,40.30
2024-03-05T10:25:31.308Z,37.67
2024-03-05T10:27:58.627Z,39.03
2024-03-05T10:30:29.217Z,38.63
2024-03-05T10:33:07.983Z,39.53
2024-03-05T10:35:35.378Z,40.37
2024-03-05T10:38:07.710Z,40.07
2024-03-05T10:40:35.642Z,39.10
2024-03-05T10:43:05.209Z,39.13
2024-03-05T10:45:37.413Z,37.83
2024-03-05T10:48:05.844Z,38.33
2024-03-05T10:50:35.691Z,39.27
2024-03-05T10:53:03.489Z,40.73
2024-03-05T10:55:32.779Z,37.77
2024-03-05T10:58:00.548Z,39.53
2024-03-05T11:00:27.938Z,39.03
2024-03-05T11:02:59.575Z,39.07
2024-03-05T11:05:28.247Z,37.77
2024-03-05T11:07:56.076Z,37.40
2024-03-05T11:10:27.348Z,37.00
2024-03-05T11:12:55.190Z,37.93
2024-03-05T11:15:22.678Z,37.37
2024-03-05T11:17:49.965Z,36.90
2024-03-05T11:20:40.153Z,36.03
2024-03-05T11:23:07.673Z,34.47
2024-03-05T11:25:35.311Z,34.30
2024-03-05T11:28:02.734Z,34.57
2024-03-05T11:30:30.113Z,32.90
2024-03-05T11:32:57.595Z,34.07
2024-03-05T11:35:26.858Z,33.20
2024-03-05T11:37:56.749Z,33.67
2024-03-05T11:40:34.681Z,33.63
2024-03-05T11:43:02.478Z,32.13
2024-03-05T11:45:49.170Z,29.87
2024-03-05T11:48:20.615Z,30.47
2024-03-05T11:50:51.876Z,29.47
2024-03-05T11:53:19.251Z,28.07
2024-03-05T11:55:46.652Z,26.67
2024-03-05T11:58:23.369Z,26.20
2024-03-05T12:00:50.803Z,27.07
2024-03-05T12:03:20.879Z,25.63
2024-03-05T12:05:48.211Z,26.53
2024-03-05T12:08:15.495Z,25.87
2024-03-05T12:10:43.333Z,23.43
2024-03-05T12:13:19.232Z,21.67
2024-03-05T12:15:46.563Z,21.73
2024-03-05T12:18:13.918Z,20.47
2024-03-05T12:20:41.851Z,19.87
2024-03-05T12:23:09.940Z,20.37
2024-03-05T12:25:37.305Z,20.73
2024-03-05T12:28:06.366Z,20.87
2024-03-05T12:30:34.736Z,20.93
2024-03-05T12:33:02.523Z,20.00
2024-03-05T12:35:29.822Z,21.50
2024-03-05T12:37:57.265Z,20.87
2024-03-05T12:40:24.743Z,21.73
2024-03-05T12:42:52.044Z,19.93
2024-03-05T12:45:20.239Z,18.00
2024-03-05T12:47:59.282Z,16.63
2024-03-05T12:50:27.896Z,17.67
2024-03-05T12:53:05.801Z,17.73
2024-03-05T12:55:33.778Z,17.90
2024-03-05T12:58:04.918Z,19.13
2024-03-05T13:00:32.406Z,19.77
2024-03-05T13:02:59.657Z,19.50
2024-03-05T13:05:27.061Z,16.67
2024-03-05T13:07:54.452Z,17.03
2024-03-05T13:10:21.893Z,15.93
2024-03-05T13:12:49.151Z,15.53
2024-03-05T13:15:16.560Z,16.10
2024-03-05T13:17:43.882Z,17.30
2024-03-05T13:20:12.176Z,17.20
2024-03-05T13:22:39.565Z,16.80
2024-03-05T13:25:07.132Z,15.70
2024-03-05T13:27:34.420Z,16.57
2024-03-05T13:30:09.849Z,15.90
2024-03-05T13:32:41.237Z,15.50
2024-03-05T13:35:08.791Z,13.50
2024-03-05T13:37:36.915Z,13.17
2024-03-05T13:40:05.535Z,12.13
2024-03-05T13:42:33.630Z,12.87
2024-03-05T13:45:00.890Z,13.10
2024-03-05T13:47:31.428Z,13.53
2024-03-05T13:49:59.214Z,14.23
2024-03-05T13:52:26.563Z,12.43
2024-03-05T13:54:53.882Z,12.87
2024-03-05T13:57:21.196Z,12.13
2024-03-05T13:59:48.478Z,13.47
2024-03-05T14:02:15.808Z,14.23
2024-03-05T14:04:43.252Z,15.13
2024-03-05T14:07:10.562Z,16.20
2024-03-05T14:09:38.050Z,13.07
2024-03-05T14:12:05.868Z,14.13
2024-03-05T14:14:33.274Z,13.67
2024-03-05T14:17:00.666Z,13.87
2024-03-05T14:19:28.137Z,14.30
2024-03-05T14:21:55.516Z,14.00
2024-03-05T14:24:22.817Z,13.73
2024-03-05T14:26:50.137Z,13.50
2024-03-05T14:29:17.598Z,12.43
2024-03-05T14:31:45.192Z,11.87
2024-03-05T14:34:12.569Z,13.00
2024-03-05T14:36:39.977Z,12.10
2024-03-05T14:39:07.352Z,11.67
2024-03-05T14:41:35.106Z,11.93
2024-03-05T14:44:03.330Z,11.90
2024-03-05T14:46:30.664Z,9.33
2024-03-05T14:48:58.159Z,10.47
2024-03-05T14:51:25.428Z,10.33
2024-03-05T14:53:53.417Z,10.00
2024-03-05T14:56:20.765Z,10.00
2024-03-05T14:58:48.334Z,9.47
2024-03-05T15:01:15.602Z,9.27
2024-03-05T15:03:42.959Z,9.10
2024-03-05T15:06:10.285Z,7.83
2024-03-05T15:08:37.771Z,8.37
2024-03-05T15:11:05.152Z,8.63
2024-03-05T15:13:32.631Z,8.03
2024-03-05T15:16:00.279Z,8.47
2024-03-05T15:18:27.660Z,8.43
2024-03-05T15:20:54.873Z,8.53
2024-03-05T15:23:22.344Z,8.10
2024-03-05T15:25:52.595Z,8.73
2024-03-05T15:28:19.916Z,8.10
2024-03-05T15:30:50.141Z,9.27
2024-03-05T15:33:17.484Z,8.40
2024-03-05T15:35:44.893Z,8.87
2024-03-05T15:38:12.284Z,9.60
2024-03-05T15:40:39.948Z,8.70
2024-03-05T15:43:08.645Z,9.33
2024-03-05T15:45:36.590Z,9.60
2024-03-05T15:48:04.146Z,9.17
2024-03-05T15:50:31.819Z,8.43
2024-03-05T15:53:00.275Z,8.67
2024-03-05T15:55:28.327Z,9.50
2024-03-05T15:57:57.184Z,9.93
2024-03-05T16:00:26.422Z,9.83
2024-03-05T16:02:53.780Z,9.83
2024-03-05T16:05:28.943Z,10.13
2024-03-05T16:08:04.809Z,9.67
2024-03-05T16:10:38.824Z,11.03
2024-03-05T16:13:12.571Z,11.63
2024-03-05T16:15:39.824Z,11.43
2024-03-05T16:18:07.115Z,11.83
2024-03-05T16:20:34.741Z,11.37
2024-03-05T16:23:02.145Z,11.07
2024-03-05T16:25:29.887Z,11.33
2024-03-05T16:27:58.671Z,11.37
2024-03-05T16:30:27.505Z,11.23
2024-03-05T16:32:55.644Z,10.30
2024-03-05T16:35:23.925Z,9.90
2024-03-05T16:37:51.320Z,9.70
2024-03-05T16:40:19.928Z,10.70
2024-03-05T16:42:48.212Z,8.90
2024-03-05T16:45:15.763Z,10.20
2024-03-05T16:47:44.043Z,10.20
2024-03-05T16:50:12.340Z,10.00
2024-03-05T16:52:44.838Z,11.53
2024-03-05T16:55:13.812Z,9.50
2024-03-05T16:57:43.021Z,7.80
2024-03-05T17:00:12.689Z,9.40
2024-03-05T17:02:40.861Z,9.13
2024-03-05T17:05:08.366Z,9.83
2024-03-05T17:07:35.739Z,10.97
2024-03-05T17:10:03.225Z,11.27
2024-03-05T17:12:30.467Z,11.03
2024-03-05T17:14:57.733Z,9.83
2024-03-05T17:17:25.032Z,9.10
2024-03-05T17:19:52.446Z,10.00
2024-03-05T17:22:19.813Z,9.63
2024-03-05T17:24:47.121Z,10.10
2024-03-05T17:27:14.331Z,9.57
2024-03-05T17:29:41.643Z,9.80
2024-03-05T17:32:09.016Z,9.37
2024-03-05T17:34:36.441Z,9.83
2024-03-05T17:37:03.652Z,10.57
2024-03-05T17:39:31.061Z,10.43
2024-03-05T17:41:58.319Z,11.07
2024-03-05T17:44:25.716Z,11.00
2024-03-05T17:46:53.273Z,12.57
2024-03-05T17:49:20.628Z,12.70
2024-03-05T17:51:50.805Z,13.03
2024-03-05T17:54:18.232Z,13.17
2024-03-05T17:56:45.529Z,12.70
2024-03-05T17:59:12.936Z,12.53
2024-03-05T18:01:40.364Z,14.20
2024-03-05T18:04:07.770Z,13.93
2024-03-05T18:06:35.455Z,13.17
2024-03-05T18:09:03.000Z,13.53
2024-03-05T18:11:30.333Z,14.07
2024-03-05T18:13:57.707Z,15.17
2024-03-05T18:16:25.072Z,15.53
2024-03-05T18:18:58.398Z,14.73
2024-03-05T18:21:29.136Z,16.00
2024-03-05T18:23:58.575Z,15.97
2024-03-05T18:26:26.577Z,14.93
2024-03-05T18:28:57.092Z,16.40
2024-03-05T18:31:25.250Z,17.53
2024-03-05T18:33:52.530Z,18.97
2024-03-05T18:36:19.888Z,16.97
2024-03-05T18:38:47.162Z,16.70
2024-03-05T18:41:14.889Z,17.13
2024-03-05T18:43:42.129Z,17.50
2024-03-05T18:46:09.480Z,18.17
2024-03-05T18:48:36.875Z,17.30
2024-03-05T18:51:04.487Z,17.60
2024-03-05T18:53:39.528Z,17.47
2024-03-05T18:56:11.960Z,18.30
2024-03-05T18:58:39.350Z,18.67
2024-03-05T19:01:06.770Z,16.70
2024-03-05T19:03:34.041Z,16.27
2024-03-05T19:06:01.487Z,16.70
2024-03-05T19:08:28.838Z,17.90
2024-03-05T19:10:56.309Z,16.13
2024-03-05T19:13:23.617Z,17.73
2024-03-05T19:15:50.916Z,42.00
2024-03-05T19:18:18.237Z,36.00
2024-03-05T19:20:45.698Z,31.30
2024-03-05T19:23:13.047Z,38.00
2024-03-05T19:25:40.469Z,21.87
2024-03-05T19:28:07.684Z,21.10
2024-03-05T19:30:35.033Z,19.30
2024-03-05T19:33:02.536Z,19.87
2024-03-05T19:35:29.943Z,19.97
2024-03-05T19:37:57.219Z,19.30
2024-03-05T19:40:24.553Z,19.60
2024-03-05T19:42:58.564Z,23.27
2024-03-05T19:45:26.484Z,29.17
2024-03-05T19:47:54.554Z,27.33
2024-03-05T19:50:22.454Z,21.80
2024-03-05T19:52:50.029Z,20.77
2024-03-05T19:55:17.436Z,22.40
2024-03-05T19:57:45.073Z,19.93
2024-03-05T20:00:13.700Z,21.23
2024-03-05T20:02:41.031Z,22.60
2024-03-05T20:05:08.724Z,22.70
2024-03-05T20:07:36.099Z,20.70
2024-03-05T20:10:03.551Z,30.03
2024-03-05T20:12:30.966Z,23.30
2024-03-05T20:14:58.528Z,23.60
2024-03-05T20:17:27.604Z,23.70
2024-03-05T20:19:55.345Z,24.53
2024-03-05T20:22:23.984Z,26.07
2024-03-05T20:24:51.234Z,24.97
2024-03-05T20:27:18.428Z,25.20
2024-03-05T20:29:45.744Z,24.23
2024-03-05T20:32:13.004Z,23.80
2024-03-05T20:34:40.357Z,25.23
2024-03-05T20:37:07.602Z,23.93
2024-03-05T20:39:34.986Z,24.30
2024-03-05T20:42:02.236Z,29.00
2024-03-05T20:44:29.586Z,28.03
2024-03-05T20:46:56.998Z,25.97
2024-03-05T20:49:24.402Z,26.40
2024-03-05T20:51:51.648Z,25.43
2024-03-05T20:54:19.996Z,25.00
2024-03-05T20:56:47.272Z,25.67
2024-03-05T20:59:14.733Z,25.87
2024-03-05T21:01:42.116Z,23.43
2024-03-05T21:04:11.996Z,26.13
2024-03-05T21:07:19.922Z,26.17
2024-03-05T21:09:47.180Z,23.57
2024-03-05T21:12:14.514Z,23.97
2024-03-05T21:14:41.834Z,24.13
2024-03-05T21:17:09.139Z,22.80
2024-03-05T21:19:36.446Z,23.93
2024-03-05T21:22:03.784Z,24.93
2024-03-05T21:24:31.137Z,22.90
2024-03-05T21:27:15.957Z,23.23
2024-03-05T21:29:45.854Z,23.77
2024-03-05T21:32:13.084Z,22.87
2024-03-05T21:34:40.404Z,22.40
2024-03-05T21:37:07.682Z,23.70
2024-03-05T21:39:35.084Z,22.33
2024-03-05T21:42:02.450Z,21.57
2024-03-05T21:44:37.311Z,21.43
2024-03-05T21:47:09.752Z,22.73
2024-03-05T21:49:37.112Z,22.53
2024-03-05T21:52:04.602Z,22.93
2024-03-05T21:54:31.913Z,23.73
2024-03-05T21:56:59.196Z,24.80
2024-03-05T21:59:29.025Z,22.73
2024-03-05T22:01:56.561Z,23.13
2024-03-05T22:04:23.918Z,23.03
2024-03-05T22:06:53.379Z,23.73
2024-03-05T22:09:21.423Z,24.30
2024-03-05T22:11:48.810Z,26.40
2024-03-05T22:14:16.329Z,23.87
2024-03-05T22:16:43.695Z,24.77
2024-03-05T22:19:11.212Z,24.13
2024-03-05T22:21:38.939Z,24.77
2024-03-05T22:24:06.844Z,24.97
2024-03-05T22:26:39.771Z,25.83
2024-03-05T22:29:07.098Z,23.40
2024-03-05T22:31:34.400Z,21.90
2024-03-05T22:34:01.782Z,21.93
2024-03-05T22:36:29.058Z,25.33
2024-03-05T22:38:56.396Z,22.13
2024-03-05T22:41:23.636Z,23.73
2024-03-05T22:43:51.040Z,21.20
2024-03-05T22:46:18.316Z,23.73
2024-03-05T22:48:45.605Z,20.23
2024-03-05T22:51:12.929Z,21.27
2024-03-05T22:53:40.402Z,22.30
2024-03-05T22:56:07.696Z,22.73
2024-03-05T22:58:36.481Z,22.50
2024-03-05T23:01:04.093Z,21.60
2024-03-05T23:03:32.635Z,20.90
2024-03-05T23:06:03.209Z,21.77
2024-03-05T23:08:32.720Z,25.23
2024-03-05T23:11:00.088Z,24.87
2024-03-05T23:13:27.551Z,25.50
2024-03-05T23:15:54.809Z,21.77
2024-03-05T23:18:22.444Z,21.13
2024-03-05T23:20:49.693Z,21.73
2024-03-05T23:23:17.087Z,21.30
2024-03-05T23:25:45.891Z,23.47
2024-03-05T23:28:14.743Z,22.10
2024-03-05T23:30:41.999Z,22.07
2024-03-05T23:33:09.436Z,24.03
2024-03-05T23:35:36.670Z,23.83
2024-03-05T23:38:06.915Z,24.30
2024-03-05T23:40:34.396Z,20.27
2024-03-05T23:43:01.743Z,24.07
2024-03-05T23:45:29.114Z,25.80
2024-03-05T23:47:56.349Z,24.87
2024-03-05T23:50:23.821Z,25.17
2024-03-05T23:52:51.407Z,24.37
2024-03-05T23:55:18.909Z,28.60
2024-03-05T23:57:46.221Z,26.13
